createdAt,value
2022-12-18T00:01:44.254Z,7.25
2022-12-18T00:04:46.801Z,7.18
2022-12-18T00:07:49.013Z,6.45
2022-12-18T00:10:51.335Z,6.10
2022-12-18T00:13:56.623Z,5.22
2022-12-18T00:17:01.591Z,5.88
2022-12-18T00:20:04.712Z,6.45
2022-12-18T00:23:07.667Z,5.78
2022-12-18T00:26:17.472Z,6.82
2022-12-18T00:29:19.733Z,5.45
2022-12-18T00:32:23.434Z,7.00
2022-12-18T00:35:25.720Z,6.20
2022-12-18T00:38:28.872Z,4.97
2022-12-18T00:41:49.909Z,5.93
2022-12-18T00:44:52.290Z,5.90
2022-12-18T00:47:56.899Z,6.18
2022-12-18T00:50:59.230Z,5.82
2022-12-18T00:54:01.724Z,4.97
2022-12-18T00:57:04.455Z,7.55
2022-12-18T01:00:10.399Z,6.22
2022-12-18T01:03:15.673Z,6.13
2022-12-18T01:06:19.791Z,5.78
2022-12-18T01:09:22.858Z,6.65
2022-12-18T01:12:27.172Z,5.43
2022-12-18T01:15:29.532Z,5.30
2022-12-18T01:18:33.367Z,6.53
2022-12-18T01:21:36.643Z,6.10
2022-12-18T01:24:39.961Z,5.53
2022-12-18T01:27:42.188Z,7.47
2022-12-18T01:30:44.492Z,6.20
2022-12-18T01:33:49.322Z,7.03
2022-12-18T01:36:53.250Z,5.55
2022-12-18T01:39:55.700Z,6.85
2022-12-18T01:42:58.293Z,3.80
2022-12-18T01:46:00.725Z,5.45
2022-12-18T01:49:04.830Z,4.47
2022-12-18T01:52:07.199Z,7.75
2022-12-18T01:55:11.330Z,6.25
2022-12-18T01:58:14.591Z,6.15
2022-12-18T02:01:17.753Z,4.78
2022-12-18T02:04:23.558Z,6.47
2022-12-18T02:07:35.198Z,6.10
2022-12-18T02:10:42.728Z,6.40
2022-12-18T02:13:48.027Z,6.55
2022-12-18T02:16:54.414Z,7.43
2022-12-18T02:20:09.280Z,6.10
2022-12-18T02:23:21.100Z,5.80
2022-12-18T02:26:29.249Z,6.65
2022-12-18T02:29:35.688Z,6.30
2022-12-18T02:32:41.185Z,4.45
2022-12-18T02:35:45.439Z,6.25
2022-12-18T02:38:48.945Z,5.75
2022-12-18T02:41:53.935Z,5.50
2022-12-18T02:44:59.525Z,4.47
2022-12-18T02:48:02.251Z,6.35
2022-12-18T02:51:19.498Z,5.90
2022-12-18T02:54:39.338Z,6.38
2022-12-18T02:57:48.973Z,4.18
2022-12-18T03:00:54.912Z,6.55
2022-12-18T03:04:01.109Z,6.10
2022-12-18T03:07:09.002Z,6.47
2022-12-18T03:10:15.272Z,4.85
2022-12-18T03:13:23.216Z,5.93
2022-12-18T03:16:29.612Z,5.95
2022-12-18T03:19:33.645Z,6.35
2022-12-18T03:22:38.854Z,5.32
2022-12-18T03:25:44.164Z,4.88
2022-12-18T03:28:51.846Z,5.03
2022-12-18T03:31:57.737Z,6.07
2022-12-18T03:35:05.570Z,6.25
2022-12-18T03:38:12.178Z,5.93
2022-12-18T03:41:21.057Z,4.78
2022-12-18T03:44:46.699Z,5.32
2022-12-18T03:47:57.885Z,5.70
2022-12-18T03:51:03.444Z,6.00
2022-12-18T03:54:08.760Z,5.30
2022-12-18T03:57:18.114Z,7.25
2022-12-18T04:00:22.488Z,5.32
2022-12-18T04:03:32.935Z,5.88
2022-12-18T04:06:35.770Z,6.50
2022-12-18T04:09:40.008Z,5.70
2022-12-18T04:12:43.999Z,6.25
2022-12-18T04:15:49.423Z,5.85
2022-12-18T04:18:53.524Z,7.03
2022-12-18T04:21:57.092Z,5.07
2022-12-18T04:24:59.418Z,5.63
2022-12-18T04:28:08.765Z,6.78
2022-12-18T04:31:14.845Z,7.43
2022-12-18T04:34:17.794Z,6.93
2022-12-18T04:37:25.706Z,6.30
2022-12-18T04:40:28.107Z,6.03
2022-12-18T04:43:33.913Z,7.90
2022-12-18T04:46:37.603Z,4.05
2022-12-18T04:49:39.985Z,7.18
2022-12-18T04:52:42.270Z,6.47
2022-12-18T04:55:44.587Z,6.47
2022-12-18T04:58:46.969Z,7.10
2022-12-18T05:01:50.857Z,7.22
2022-12-18T05:04:53.251Z,6.20
2022-12-18T05:07:55.571Z,7.72
2022-12-18T05:11:01.061Z,6.50
2022-12-18T05:14:03.475Z,5.75
2022-12-18T05:17:07.087Z,8.02
2022-12-18T05:20:10.548Z,6.65
2022-12-18T05:23:12.931Z,6.05
2022-12-18T05:26:17.132Z,8.60
2022-12-18T05:29:19.484Z,4.55
2022-12-18T05:32:23.121Z,7.05
2022-12-18T05:35:25.557Z,5.95
2022-12-18T05:38:28.480Z,7.82
2022-12-18T05:41:30.773Z,5.75
2022-12-18T05:44:35.613Z,6.55
2022-12-18T05:47:39.565Z,6.13
2022-12-18T05:50:43.946Z,5.75
2022-12-18T05:53:46.986Z,6.15
2022-12-18T05:56:49.586Z,7.72
2022-12-18T05:59:52.092Z,6.82
2022-12-18T06:02:55.828Z,8.18
2022-12-18T06:05:58.252Z,6.57
2022-12-18T06:09:02.263Z,6.85
2022-12-18T06:12:05.787Z,6.72
2022-12-18T06:15:09.108Z,6.97
2022-12-18T06:18:12.788Z,7.07
2022-12-18T06:21:15.059Z,7.18
2022-12-18T06:24:17.517Z,6.72
2022-12-18T06:27:20.133Z,5.18
2022-12-18T06:30:22.536Z,7.13
2022-12-18T06:33:29.060Z,6.75
2022-12-18T06:36:31.674Z,7.00
2022-12-18T06:39:34.049Z,5.63
2022-12-18T06:42:36.374Z,7.32
2022-12-18T06:45:38.711Z,6.68
2022-12-18T06:48:42.499Z,7.22
2022-12-18T06:51:44.796Z,8.18
2022-12-18T06:54:47.795Z,6.43
2022-12-18T06:57:50.329Z,7.72
2022-12-18T07:00:52.888Z,7.07
2022-12-18T07:03:58.210Z,7.50
2022-12-18T07:07:00.561Z,8.95
2022-12-18T07:10:03.046Z,5.70
2022-12-18T07:13:05.262Z,5.63
2022-12-18T07:16:15.207Z,7.07
2022-12-18T07:19:22.338Z,7.63
2022-12-18T07:22:26.651Z,5.70
2022-12-18T07:25:28.922Z,5.50
2022-12-18T07:28:31.663Z,7.97
2022-12-18T07:31:33.998Z,6.72
2022-12-18T07:34:37.670Z,6.72
2022-12-18T07:37:39.927Z,6.57
2022-12-18T07:40:42.236Z,6.18
2022-12-18T07:43:44.895Z,7.97
2022-12-18T07:46:47.340Z,7.72
2022-12-18T07:49:51.075Z,6.35
2022-12-18T07:52:53.428Z,6.13
2022-12-18T07:56:25.380Z,6.85
2022-12-18T07:59:19.604Z,7.32
2022-12-18T08:02:22.076Z,6.90
2022-12-18T08:05:26.099Z,4.35
2022-12-18T08:08:28.613Z,6.53
2022-12-18T08:11:31.016Z,6.20
2022-12-18T08:14:33.379Z,7.32
2022-12-18T08:17:35.735Z,6.75
2022-12-18T08:20:39.340Z,6.65
2022-12-18T08:23:43.322Z,6.07
2022-12-18T08:27:01.091Z,5.80
2022-12-18T08:30:10.200Z,5.32
2022-12-18T08:33:12.523Z,6.32
2022-12-18T08:36:16.406Z,4.65
2022-12-18T08:39:18.777Z,5.53
2022-12-18T08:42:41.377Z,6.35
2022-12-18T08:45:43.717Z,5.78
2022-12-18T08:48:46.182Z,6.95
2022-12-18T08:51:49.793Z,6.40
2022-12-18T08:54:52.162Z,7.18
2022-12-18T08:57:54.549Z,6.47
2022-12-18T09:01:01.792Z,6.68
2022-12-18T09:04:04.547Z,5.28
2022-12-18T09:07:10.015Z,6.20
2022-12-18T09:10:12.417Z,5.25
2022-12-18T09:13:16.460Z,5.88
2022-12-18T09:16:19.321Z,5.18
2022-12-18T09:19:21.765Z,5.20
2022-12-18T09:22:25.521Z,6.20
2022-12-18T09:25:32.731Z,6.35
2022-12-18T09:28:35.112Z,6.05
2022-12-18T09:31:38.288Z,7.88
2022-12-18T09:34:40.780Z,4.55
2022-12-18T09:37:44.688Z,6.47
2022-12-18T09:40:49.234Z,6.32
2022-12-18T09:43:53.980Z,5.47
2022-12-18T09:47:03.875Z,5.72
2022-12-18T09:50:17.973Z,5.72
2022-12-18T09:53:25.610Z,6.03
2022-12-18T09:56:33.365Z,4.68
2022-12-18T09:59:38.107Z,5.47
2022-12-18T10:02:41.073Z,5.68
2022-12-18T10:05:49.424Z,5.45
2022-12-18T10:09:00.845Z,6.38
2022-12-18T10:12:10.152Z,6.45
2022-12-18T10:15:20.792Z,6.05
2022-12-18T10:18:34.959Z,5.38
2022-12-18T10:21:43.277Z,5.70
2022-12-18T10:24:55.898Z,5.90
2022-12-18T10:28:08.183Z,6.53
2022-12-18T10:31:17.013Z,5.60
2022-12-18T10:34:22.189Z,6.15
2022-12-18T10:37:26.237Z,7.22
2022-12-18T10:40:54.525Z,5.80
2022-12-18T10:44:18.134Z,4.20
2022-12-18T10:47:20.650Z,5.47
2022-12-18T10:50:46.871Z,5.00
2022-12-18T10:53:55.517Z,5.80
2022-12-18T10:57:15.369Z,5.80
2022-12-18T11:00:26.409Z,5.63
2022-12-18T11:03:40.592Z,4.78
2022-12-18T11:06:58.449Z,6.57
2022-12-18T11:10:08.422Z,4.82
2022-12-18T11:13:31.721Z,4.38
2022-12-18T11:17:03.110Z,5.05
2022-12-18T11:20:31.459Z,5.40
2022-12-18T11:23:50.091Z,5.65
2022-12-18T11:26:59.942Z,4.82
2022-12-18T11:30:15.463Z,5.43
2022-12-18T11:33:30.394Z,5.60
2022-12-18T11:36:40.882Z,6.72
2022-12-18T11:39:50.480Z,5.47
2022-12-18T11:42:58.337Z,6.90
2022-12-18T11:46:14.757Z,6.30
2022-12-18T11:49:28.393Z,5.85
2022-12-18T11:52:42.296Z,5.85
2022-12-18T11:55:52.561Z,7.57
2022-12-18T11:59:07.374Z,6.97
2022-12-18T12:02:36.198Z,5.95
2022-12-18T12:05:58.388Z,6.55
2022-12-18T12:09:23.205Z,6.65
2022-12-18T12:12:49.574Z,6.82
2022-12-18T12:16:13.380Z,6.25
2022-12-18T12:19:34.878Z,5.68
2022-12-18T12:22:46.577Z,6.07
2022-12-18T12:25:57.047Z,6.85
2022-12-18T12:29:20.961Z,6.00
2022-12-18T12:32:38.667Z,7.97
2022-12-18T12:35:48.816Z,5.28
2022-12-18T12:38:56.945Z,7.20
2022-12-18T12:42:26.146Z,6.43
2022-12-18T12:45:33.171Z,6.38
2022-12-18T12:48:51.829Z,7.95
2022-12-18T12:52:00.394Z,6.07
2022-12-18T12:55:14.432Z,6.00
2022-12-18T12:58:24.968Z,7.00
2022-12-18T13:01:37.819Z,6.65
2022-12-18T13:04:52.353Z,4.20
2022-12-18T13:08:05.121Z,7.57
2022-12-18T13:11:53.612Z,6.70
2022-12-18T13:15:15.469Z,6.45
2022-12-18T13:18:22.124Z,6.32
2022-12-18T13:21:29.661Z,7.60
2022-12-18T13:24:36.151Z,7.05
2022-12-18T13:27:58.522Z,7.43
2022-12-18T13:31:04.850Z,6.70
2022-12-18T13:34:26.193Z,6.32
2022-12-18T13:37:46.290Z,7.45
2022-12-18T13:40:58.118Z,7.47
2022-12-18T13:44:12.864Z,8.13
2022-12-18T13:47:27.774Z,7.72
2022-12-18T13:50:35.939Z,6.03
2022-12-18T13:53:45.466Z,7.32
2022-12-18T13:56:51.873Z,8.15
2022-12-18T13:59:54.279Z,7.10
2022-12-18T14:03:00.142Z,7.32
2022-12-18T14:06:05.645Z,7.18
2022-12-18T14:09:19.021Z,7.13
2022-12-18T14:12:45.908Z,7.60
2022-12-18T14:15:54.031Z,7.65
2022-12-18T14:19:04.543Z,7.20
2022-12-18T14:22:20.138Z,6.75
2022-12-18T14:25:24.519Z,6.45
2022-12-18T14:28:28.334Z,8.75
2022-12-18T14:31:32.661Z,7.93
2022-12-18T14:34:35.040Z,8.80
2022-12-18T14:37:37.397Z,8.35
2022-12-18T14:40:42.653Z,7.60
2022-12-18T14:43:49.022Z,8.82
2022-12-18T14:46:51.968Z,7.72
2022-12-18T14:49:54.374Z,7.70
2022-12-18T14:53:03.227Z,7.70
2022-12-18T14:56:19.242Z,8.70
2022-12-18T14:59:25.057Z,7.50
2022-12-18T15:02:29.263Z,8.07
2022-12-18T15:05:32.371Z,7.15
2022-12-18T15:08:37.727Z,7.47
2022-12-18T15:11:50.520Z,8.93
2022-12-18T15:14:54.340Z,7.18
2022-12-18T15:18:00.103Z,7.60
2022-12-18T15:21:10.064Z,7.60
2022-12-18T15:24:18.668Z,7.63
2022-12-18T15:27:32.064Z,8.30
2022-12-18T15:30:35.837Z,7.47
2022-12-18T15:33:40.482Z,8.35
2022-12-18T15:36:43.108Z,8.73
2022-12-18T15:39:45.449Z,8.40
2022-12-18T15:43:07.384Z,9.10
2022-12-18T15:46:14.447Z,9.85
2022-12-18T15:49:16.843Z,7.40
2022-12-18T15:52:26.923Z,7.30
2022-12-18T15:55:50.360Z,8.85
2022-12-18T15:58:52.676Z,8.80
2022-12-18T16:01:59.797Z,7.05
2022-12-18T16:05:02.663Z,8.10
2022-12-18T16:08:05.061Z,7.63
2022-12-18T16:11:13.118Z,7.90
2022-12-18T16:14:19.166Z,8.32
2022-12-18T16:17:22.936Z,7.47
2022-12-18T16:20:25.278Z,9.82
2022-12-18T16:23:28.115Z,8.07
2022-12-18T16:26:30.666Z,8.65
2022-12-18T16:29:34.022Z,12.73
2022-12-18T16:32:37.740Z,10.52
2022-12-18T16:35:40.266Z,9.57
2022-12-18T16:38:42.964Z,9.15
2022-12-18T16:41:45.455Z,7.97
2022-12-18T16:44:49.041Z,9.20
2022-12-18T16:47:52.705Z,9.45
2022-12-18T16:51:01.057Z,7.10
2022-12-18T16:54:09.337Z,9.93
2022-12-18T16:57:15.604Z,8.20
2022-12-18T17:00:18.245Z,9.70
2022-12-18T17:03:21.988Z,10.15
2022-12-18T17:06:25.704Z,10.80
2022-12-18T17:09:28.400Z,9.05
2022-12-18T17:12:30.855Z,7.63
2022-12-18T17:15:35.349Z,10.02
2022-12-18T17:18:39.102Z,8.73
2022-12-18T17:21:41.462Z,10.00
2022-12-18T17:24:43.852Z,9.43
2022-12-18T17:27:46.125Z,8.82
2022-12-18T17:30:48.433Z,10.13
2022-12-18T17:33:52.903Z,10.07
2022-12-18T17:36:55.301Z,10.82
2022-12-18T17:39:57.656Z,8.93
2022-12-18T17:42:59.996Z,9.73
2022-12-18T17:46:03.322Z,9.52
2022-12-18T17:49:08.482Z,9.85
2022-12-18T17:52:11.170Z,10.30
2022-12-18T17:55:13.499Z,9.48
2022-12-18T17:58:15.783Z,9.40
2022-12-18T18:01:20.161Z,10.35
2022-12-18T18:04:25.406Z,10.32
2022-12-18T18:07:27.874Z,10.23
2022-12-18T18:10:30.273Z,10.73
2022-12-18T18:13:52.812Z,10.60
2022-12-18T18:16:55.778Z,7.65
2022-12-18T18:20:00.915Z,9.88
2022-12-18T18:23:03.349Z,9.93
2022-12-18T18:26:06.936Z,9.75
2022-12-18T18:29:12.513Z,9.60
2022-12-18T18:32:15.010Z,8.63
2022-12-18T18:35:45.035Z,11.70
2022-12-18T18:38:45.379Z,8.95
2022-12-18T18:41:51.046Z,10.05
2022-12-18T18:44:53.383Z,10.50
2022-12-18T18:47:56.722Z,7.50
2022-12-18T18:51:02.368Z,11.48
2022-12-18T18:54:05.347Z,10.00
2022-12-18T18:57:29.967Z,9.60
2022-12-18T19:00:32.835Z,10.13
2022-12-18T19:03:38.425Z,10.20
2022-12-18T19:06:44.115Z,9.77
2022-12-18T19:09:51.856Z,9.90
2022-12-18T19:13:12.893Z,8.77
2022-12-18T19:16:15.336Z,10.52
2022-12-18T19:19:21.070Z,9.07
2022-12-18T19:22:25.974Z,8.40
2022-12-18T19:25:38.627Z,10.25
2022-12-18T19:28:44.091Z,10.70
2022-12-18T19:31:46.658Z,10.23
2022-12-18T19:34:49.247Z,6.82
2022-12-18T19:37:53.758Z,8.05
2022-12-18T19:40:55.984Z,10.57
2022-12-18T19:43:58.500Z,10.02
2022-12-18T19:47:00.755Z,8.13
2022-12-18T19:50:03.268Z,10.43
2022-12-18T19:53:06.910Z,8.95
2022-12-18T19:56:16.749Z,10.23
2022-12-18T19:59:19.027Z,8.45
2022-12-18T20:02:21.506Z,8.43
2022-12-18T20:05:25.394Z,9.13
2022-12-18T20:08:32.440Z,10.27
2022-12-18T20:11:41.805Z,10.00
2022-12-18T20:14:44.973Z,10.75
2022-12-18T20:17:48.034Z,6.25
2022-12-18T20:20:50.426Z,11.18
2022-12-18T20:23:55.840Z,9.13
2022-12-18T20:26:58.414Z,9.68
2022-12-18T20:30:00.675Z,9.55
2022-12-18T20:33:03.062Z,9.50
2022-12-18T20:36:13.109Z,10.25
2022-12-18T20:39:17.997Z,9.03
2022-12-18T20:42:21.533Z,9.50
2022-12-18T20:45:23.821Z,9.20
2022-12-18T20:48:28.722Z,9.32
2022-12-18T20:51:34.864Z,10.57
2022-12-18T20:54:38.682Z,8.48
2022-12-18T20:57:40.965Z,7.45
2022-12-18T21:00:43.235Z,10.02
2022-12-18T21:03:46.164Z,7.45
2022-12-18T21:06:53.045Z,9.30
2022-12-18T21:09:58.947Z,8.88
2022-12-18T21:13:04.539Z,7.30
2022-12-18T21:16:08.464Z,8.25
2022-12-18T21:19:17.613Z,9.82
2022-12-18T21:22:20.183Z,11.77
2022-12-18T21:25:24.315Z,8.93
2022-12-18T21:28:29.064Z,8.82
2022-12-18T21:31:38.839Z,9.57
2022-12-18T21:34:46.223Z,9.82
2022-12-18T21:37:50.415Z,9.40
2022-12-18T21:40:54.052Z,9.23
2022-12-18T21:44:05.588Z,11.07
2022-12-18T21:47:20.851Z,9.63
2022-12-18T21:50:25.514Z,9.52
2022-12-18T21:53:27.791Z,10.63
2022-12-18T21:56:44.930Z,9.63
2022-12-18T21:59:47.161Z,10.05
2022-12-18T22:03:01.221Z,9.27
2022-12-18T22:06:11.845Z,11.35
2022-12-18T22:09:16.478Z,9.98
2022-12-18T22:12:36.567Z,9.65
2022-12-18T22:15:45.436Z,7.43
2022-12-18T22:18:48.048Z,9.30
2022-12-18T22:21:53.645Z,10.13
2022-12-18T22:24:56.083Z,11.00
2022-12-18T22:28:17.977Z,9.02
2022-12-18T22:31:20.372Z,10.25
2022-12-18T22:34:24.994Z,10.13
2022-12-18T22:37:27.313Z,10.90
2022-12-18T22:40:29.838Z,9.00
2022-12-18T22:43:37.164Z,8.43
2022-12-18T22:46:40.545Z,8.63
2022-12-18T22:49:42.882Z,11.75
2022-12-18T22:52:45.079Z,11.00
2022-12-18T22:55:47.336Z,9.90
2022-12-18T22:58:51.697Z,11.35
2022-12-18T23:01:56.264Z,8.65
2022-12-18T23:05:01.592Z,8.13
2022-12-18T23:08:04.078Z,10.45
2022-12-18T23:11:06.764Z,9.63
2022-12-18T23:14:10.397Z,7.65
2022-12-18T23:17:13.504Z,10.73
2022-12-18T23:20:15.729Z,10.93
2022-12-18T23:23:18.058Z,10.43
2022-12-18T23:26:22.358Z,10.18
2022-12-18T23:29:26.693Z,11.50
2022-12-18T23:32:29.040Z,10.40
2022-12-18T23:35:31.336Z,10.77
2022-12-18T23:38:34.474Z,10.35
2022-12-18T23:41:36.712Z,9.02
2022-12-18T23:44:40.347Z,10.10
2022-12-18T23:47:42.577Z,8.68
2022-12-18T23:50:47.680Z,8.60
2022-12-18T23:53:50.151Z,8.65
2022-12-18T23:56:52.494Z,10.30
2022-12-18T23:59:56.066Z,8.90
